Portada
METAR-TAF:

METAR-TAF

Aeroports :

Harriman-and-West Airport

North Adams, Massachusetts, Estats Units d'Amèrica

latitud: 42-41-50N, longitud: 073-10-13W, altitud: 199 m

Observació

L'informe es va fer fa 45 minuts, a les 17:52 UTC
Vent 4 kt del Sud-Oest
Temperatura 29°C
Humitat 45%
Pressió 1021 hPa
Visibilitat: 16.1 km
Cel clar

METAR: KAQW 261752Z AUTO 23004KT 10SM CLR 29/16 A3014 RMK AO2 SLP203 T02940161 10294 20178 58016

Hora: 14:37 (18:37 UTC)


TAF: manca

Observacions i pronòstics meteorològics de més de 4000 aeroports (METAR i TAF).

Les estacions disponibles són els punts grocs i vermells al mapa.

Posi el ratolí al punt desitjat per veure el nom de l'estació.

Feu clic per veure les observacions i els pronòstics meteorològics.

Per canviar el mapa: feu clic els botons verds amb una creu de color negre per apropar; al botó verd amb un guió per allunyar la imatge; o en les fletxes verdes per a mapes adjacents.


METAR-TAF: